sensor_id;sensor_type;location;lat;lon;timestamp;P1;durP1;ratioP1;P2;durP2;ratioP2
7687;SDS011;30781;48.154;11.554;2022-10-16T00:01:55;4.33;;;2.70;;
7687;SDS011;30781;48.154;11.554;2022-10-16T00:04:25;3.30;;;3.03;;
7687;SDS011;30781;48.154;11.554;2022-10-16T00:06:52;2.77;;;2.60;;
7687;SDS011;30781;48.154;11.554;2022-10-16T00:09:19;5.00;;;2.80;;
7687;SDS011;30781;48.154;11.554;2022-10-16T00:11:47;5.03;;;3.00;;
7687;SDS011;30781;48.154;11.554;2022-10-16T00:14:14;3.20;;;2.93;;
7687;SDS011;30781;48.154;11.554;2022-10-16T00:16:45;3.23;;;2.93;;
7687;SDS011;30781;48.154;11.554;2022-10-16T00:19:14;3.20;;;3.00;;
7687;SDS011;30781;48.154;11.554;2022-10-16T00:21:46;5.17;;;3.13;;
7687;SDS011;30781;48.154;11.554;2022-10-16T00:24:15;4.20;;;3.10;;
7687;SDS011;30781;48.154;11.554;2022-10-16T00:26:42;3.80;;;3.00;;
7687;SDS011;30781;48.154;11.554;2022-10-16T00:29:11;3.27;;;2.97;;
7687;SDS011;30781;48.154;11.554;2022-10-16T00:31:38;2.73;;;2.63;;
7687;SDS011;30781;48.154;11.554;2022-10-16T00:34:05;2.60;;;2.40;;
7687;SDS011;30781;48.154;11.554;2022-10-16T00:36:34;3.53;;;2.40;;
7687;SDS011;30781;48.154;11.554;2022-10-16T00:39:03;3.03;;;2.33;;
7687;SDS011;30781;48.154;11.554;2022-10-16T00:41:30;2.40;;;2.30;;
7687;SDS011;30781;48.154;11.554;2022-10-16T00:43:58;2.73;;;2.53;;
7687;SDS011;30781;48.154;11.554;2022-10-16T00:46:36;2.90;;;2.70;;
7687;SDS011;30781;48.154;11.554;2022-10-16T00:49:06;2.77;;;2.57;;
7687;SDS011;30781;48.154;11.554;2022-10-16T00:51:37;2.83;;;2.63;;
7687;SDS011;30781;48.154;11.554;2022-10-16T00:54:12;2.57;;;2.47;;
7687;SDS011;30781;48.154;11.554;2022-10-16T00:56:42;2.57;;;2.37;;
7687;SDS011;30781;48.154;11.554;2022-10-16T00:59:18;2.57;;;2.37;;
7687;SDS011;30781;48.154;11.554;2022-10-16T01:01:49;2.80;;;2.60;;
7687;SDS011;30781;48.154;11.554;2022-10-16T01:04:19;2.67;;;2.47;;
7687;SDS011;30781;48.154;11.554;2022-10-16T01:06:49;3.03;;;2.83;;
7687;SDS011;30781;48.154;11.554;2022-10-16T01:09:30;2.97;;;2.60;;
7687;SDS011;30781;48.154;11.554;2022-10-16T01:12:04;2.87;;;2.67;;
7687;SDS011;30781;48.154;11.554;2022-10-16T01:14:39;3.43;;;2.70;;
7687;SDS011;30781;48.154;11.554;2022-10-16T01:17:12;2.77;;;2.50;;
7687;SDS011;30781;48.154;11.554;2022-10-16T01:19:49;2.90;;;2.70;;
7687;SDS011;30781;48.154;11.554;2022-10-16T01:22:33;4.23;;;3.13;;
7687;SDS011;30781;48.154;11.554;2022-10-16T01:25:09;3.40;;;3.13;;
7687;SDS011;30781;48.154;11.554;2022-10-16T01:27:43;3.53;;;3.23;;
7687;SDS011;30781;48.154;11.554;2022-10-16T01:30:15;3.27;;;2.80;;
7687;SDS011;30781;48.154;11.554;2022-10-16T01:32:53;2.97;;;2.77;;
7687;SDS011;30781;48.154;11.554;2022-10-16T01:35:29;3.00;;;2.80;;
7687;SDS011;30781;48.154;11.554;2022-10-16T01:38:01;2.63;;;2.50;;
7687;SDS011;30781;48.154;11.554;2022-10-16T01:40:34;2.93;;;2.70;;
7687;SDS011;30781;48.154;11.554;2022-10-16T01:43:06;3.77;;;2.87;;
7687;SDS011;30781;48.154;11.554;2022-10-16T01:45:37;4.80;;;3.40;;
7687;SDS011;30781;48.154;11.554;2022-10-16T01:48:07;4.87;;;3.70;;
7687;SDS011;30781;48.154;11.554;2022-10-16T01:50:37;2.93;;;2.63;;
7687;SDS011;30781;48.154;11.554;2022-10-16T01:53:12;2.57;;;2.37;;
7687;SDS011;30781;48.154;11.554;2022-10-16T01:55:42;2.70;;;2.50;;
7687;SDS011;30781;48.154;11.554;2022-10-16T01:58:14;2.70;;;2.50;;
7687;SDS011;30781;48.154;11.554;2022-10-16T02:00:45;2.50;;;2.40;;
7687;SDS011;30781;48.154;11.554;2022-10-16T02:03:20;4.13;;;2.30;;
7687;SDS011;30781;48.154;11.554;2022-10-16T02:05:49;2.37;;;2.23;;
7687;SDS011;30781;48.154;11.554;2022-10-16T02:08:19;2.10;;;2.00;;
7687;SDS011;30781;48.154;11.554;2022-10-16T02:10:47;2.37;;;2.20;;
7687;SDS011;30781;48.154;11.554;2022-10-16T02:13:19;2.10;;;2.00;;
7687;SDS011;30781;48.154;11.554;2022-10-16T02:15:52;3.90;;;2.43;;
7687;SDS011;30781;48.154;11.554;2022-10-16T02:18:19;2.43;;;2.20;;
7687;SDS011;30781;48.154;11.554;2022-10-16T02:20:48;2.13;;;2.03;;
7687;SDS011;30781;48.154;11.554;2022-10-16T02:23:24;3.80;;;2.03;;
7687;SDS011;30781;48.154;11.554;2022-10-16T02:26:02;2.57;;;2.37;;
7687;SDS011;30781;48.154;11.554;2022-10-16T02:28:35;2.33;;;2.23;;
7687;SDS011;30781;48.154;11.554;2022-10-16T02:31:08;2.20;;;2.00;;
7687;SDS011;30781;48.154;11.554;2022-10-16T02:33:37;2.13;;;1.93;;
7687;SDS011;30781;48.154;11.554;2022-10-16T02:36:09;2.17;;;2.03;;
7687;SDS011;30781;48.154;11.554;2022-10-16T02:38:37;2.33;;;2.10;;
7687;SDS011;30781;48.154;11.554;2022-10-16T02:41:06;2.73;;;2.17;;
7687;SDS011;30781;48.154;11.554;2022-10-16T02:43:35;2.47;;;2.27;;
7687;SDS011;30781;48.154;11.554;2022-10-16T02:46:03;2.57;;;2.37;;
7687;SDS011;30781;48.154;11.554;2022-10-16T02:48:31;2.40;;;2.20;;
7687;SDS011;30781;48.154;11.554;2022-10-16T02:51:01;3.77;;;2.70;;
7687;SDS011;30781;48.154;11.554;2022-10-16T02:53:30;3.10;;;2.20;;
7687;SDS011;30781;48.154;11.554;2022-10-16T02:55:58;2.70;;;2.50;;
7687;SDS011;30781;48.154;11.554;2022-10-16T02:58:30;2.60;;;2.40;;
7687;SDS011;30781;48.154;11.554;2022-10-16T03:00:59;2.83;;;2.23;;
7687;SDS011;30781;48.154;11.554;2022-10-16T03:03:31;3.33;;;2.20;;
7687;SDS011;30781;48.154;11.554;2022-10-16T03:05:58;1.93;;;1.80;;
7687;SDS011;30781;48.154;11.554;2022-10-16T03:08:32;2.30;;;2.20;;
7687;SDS011;30781;48.154;11.554;2022-10-16T03:11:00;2.53;;;2.30;;
7687;SDS011;30781;48.154;11.554;2022-10-16T03:13:31;2.23;;;2.03;;
7687;SDS011;30781;48.154;11.554;2022-10-16T03:16:00;2.43;;;2.27;;
7687;SDS011;30781;48.154;11.554;2022-10-16T03:18:33;2.77;;;2.43;;
7687;SDS011;30781;48.154;11.554;2022-10-16T03:21:03;6.00;;;2.53;;
7687;SDS011;30781;48.154;11.554;2022-10-16T03:23:30;3.27;;;2.40;;
7687;SDS011;30781;48.154;11.554;2022-10-16T03:25:58;2.43;;;1.97;;
7687;SDS011;30781;48.154;11.554;2022-10-16T03:28:28;2.07;;;1.97;;
7687;SDS011;30781;48.154;11.554;2022-10-16T03:30:55;2.10;;;2.00;;
7687;SDS011;30781;48.154;11.554;2022-10-16T03:33:25;2.20;;;2.10;;
7687;SDS011;30781;48.154;11.554;2022-10-16T03:35:56;2.37;;;1.97;;
7687;SDS011;30781;48.154;11.554;2022-10-16T03:38:25;1.80;;;1.80;;
7687;SDS011;30781;48.154;11.554;2022-10-16T03:40:56;3.00;;;2.00;;
7687;SDS011;30781;48.154;11.554;2022-10-16T03:43:23;1.80;;;1.70;;
7687;SDS011;30781;48.154;11.554;2022-10-16T03:45:50;2.30;;;2.20;;
7687;SDS011;30781;48.154;11.554;2022-10-16T03:48:18;1.87;;;1.70;;
7687;SDS011;30781;48.154;11.554;2022-10-16T03:50:48;1.87;;;1.77;;
7687;SDS011;30781;48.154;11.554;2022-10-16T03:53:16;4.67;;;2.37;;
7687;SDS011;30781;48.154;11.554;2022-10-16T03:55:46;2.27;;;2.00;;
7687;SDS011;30781;48.154;11.554;2022-10-16T03:58:23;1.83;;;1.73;;
7687;SDS011;30781;48.154;11.554;2022-10-16T04:00:50;1.63;;;1.60;;
7687;SDS011;30781;48.154;11.554;2022-10-16T04:03:17;2.20;;;2.00;;
7687;SDS011;30781;48.154;11.554;2022-10-16T04:05:51;2.30;;;2.10;;
7687;SDS011;30781;48.154;11.554;2022-10-16T04:08:18;2.07;;;1.97;;
7687;SDS011;30781;48.154;11.554;2022-10-16T04:10:45;3.03;;;2.00;;
7687;SDS011;30781;48.154;11.554;2022-10-16T04:13:17;2.00;;;1.90;;
7687;SDS011;30781;48.154;11.554;2022-10-16T04:15:45;2.20;;;1.80;;
7687;SDS011;30781;48.154;11.554;2022-10-16T04:18:12;1.93;;;1.83;;
7687;SDS011;30781;48.154;11.554;2022-10-16T04:20:42;1.60;;;1.50;;
7687;SDS011;30781;48.154;11.554;2022-10-16T04:23:14;2.47;;;2.23;;
7687;SDS011;30781;48.154;11.554;2022-10-16T04:25:42;2.40;;;2.20;;
7687;SDS011;30781;48.154;11.554;2022-10-16T04:28:12;1.63;;;1.60;;
7687;SDS011;30781;48.154;11.554;2022-10-16T04:30:40;1.80;;;1.70;;
7687;SDS011;30781;48.154;11.554;2022-10-16T04:33:13;1.87;;;1.70;;
7687;SDS011;30781;48.154;11.554;2022-10-16T04:35:43;1.90;;;1.70;;
7687;SDS011;30781;48.154;11.554;2022-10-16T04:38:16;2.00;;;1.90;;
7687;SDS011;30781;48.154;11.554;2022-10-16T04:40:45;3.40;;;1.90;;
7687;SDS011;30781;48.154;11.554;2022-10-16T04:43:16;2.20;;;2.10;;
7687;SDS011;30781;48.154;11.554;2022-10-16T04:45:43;2.27;;;2.07;;
7687;SDS011;30781;48.154;11.554;2022-10-16T04:48:15;2.70;;;1.90;;
7687;SDS011;30781;48.154;11.554;2022-10-16T04:50:43;2.03;;;1.90;;
7687;SDS011;30781;48.154;11.554;2022-10-16T04:53:18;1.73;;;1.70;;
7687;SDS011;30781;48.154;11.554;2022-10-16T04:55:50;2.10;;;1.83;;
7687;SDS011;30781;48.154;11.554;2022-10-16T04:58:20;1.90;;;1.80;;
7687;SDS011;30781;48.154;11.554;2022-10-16T05:00:47;2.00;;;1.50;;
7687;SDS011;30781;48.154;11.554;2022-10-16T05:03:17;4.10;;;2.40;;
7687;SDS011;30781;48.154;11.554;2022-10-16T05:05:44;2.30;;;1.90;;
7687;SDS011;30781;48.154;11.554;2022-10-16T05:08:13;2.80;;;2.07;;
7687;SDS011;30781;48.154;11.554;2022-10-16T05:10:43;1.90;;;1.80;;
7687;SDS011;30781;48.154;11.554;2022-10-16T05:13:14;2.93;;;1.93;;
7687;SDS011;30781;48.154;11.554;2022-10-16T05:15:41;2.10;;;2.00;;
7687;SDS011;30781;48.154;11.554;2022-10-16T05:18:08;2.43;;;2.23;;
7687;SDS011;30781;48.154;11.554;2022-10-16T05:20:40;1.83;;;1.73;;
7687;SDS011;30781;48.154;11.554;2022-10-16T05:23:07;2.00;;;1.90;;
7687;SDS011;30781;48.154;11.554;2022-10-16T05:25:37;2.23;;;2.03;;
7687;SDS011;30781;48.154;11.554;2022-10-16T05:28:06;2.53;;;2.37;;
7687;SDS011;30781;48.154;11.554;2022-10-16T05:30:33;1.90;;;1.80;;
7687;SDS011;30781;48.154;11.554;2022-10-16T05:33:06;1.90;;;1.80;;
7687;SDS011;30781;48.154;11.554;2022-10-16T05:35:35;1.90;;;1.80;;
7687;SDS011;30781;48.154;11.554;2022-10-16T05:38:05;2.60;;;2.23;;
7687;SDS011;30781;48.154;11.554;2022-10-16T05:40:32;2.10;;;2.00;;
7687;SDS011;30781;48.154;11.554;2022-10-16T05:43:00;2.60;;;2.00;;
7687;SDS011;30781;48.154;11.554;2022-10-16T05:45:31;2.13;;;2.00;;
7687;SDS011;30781;48.154;11.554;2022-10-16T05:48:01;2.20;;;2.10;;
7687;SDS011;30781;48.154;11.554;2022-10-16T05:50:29;2.17;;;1.97;;
7687;SDS011;30781;48.154;11.554;2022-10-16T05:52:58;2.40;;;2.20;;
7687;SDS011;30781;48.154;11.554;2022-10-16T05:55:26;3.67;;;2.20;;
7687;SDS011;30781;48.154;11.554;2022-10-16T05:57:54;2.00;;;1.90;;
7687;SDS011;30781;48.154;11.554;2022-10-16T06:00:21;2.20;;;2.10;;
7687;SDS011;30781;48.154;11.554;2022-10-16T06:02:51;2.30;;;2.20;;
7687;SDS011;30781;48.154;11.554;2022-10-16T06:05:27;1.80;;;1.70;;
7687;SDS011;30781;48.154;11.554;2022-10-16T06:07:54;2.33;;;2.10;;
7687;SDS011;30781;48.154;11.554;2022-10-16T06:10:27;2.60;;;2.40;;
7687;SDS011;30781;48.154;11.554;2022-10-16T06:12:59;2.20;;;2.10;;
7687;SDS011;30781;48.154;11.554;2022-10-16T06:15:33;3.27;;;2.40;;
7687;SDS011;30781;48.154;11.554;2022-10-16T06:18:05;2.43;;;2.23;;
7687;SDS011;30781;48.154;11.554;2022-10-16T06:20:32;4.13;;;2.87;;
7687;SDS011;30781;48.154;11.554;2022-10-16T06:23:00;2.50;;;2.30;;
7687;SDS011;30781;48.154;11.554;2022-10-16T06:25:30;3.47;;;2.50;;
7687;SDS011;30781;48.154;11.554;2022-10-16T06:27:59;3.30;;;2.60;;
7687;SDS011;30781;48.154;11.554;2022-10-16T06:30:26;3.07;;;2.60;;
7687;SDS011;30781;48.154;11.554;2022-10-16T06:32:54;2.53;;;2.33;;
7687;SDS011;30781;48.154;11.554;2022-10-16T06:35:24;3.00;;;2.80;;
7687;SDS011;30781;48.154;11.554;2022-10-16T06:37:54;3.50;;;2.57;;
7687;SDS011;30781;48.154;11.554;2022-10-16T06:40:22;2.40;;;2.20;;
7687;SDS011;30781;48.154;11.554;2022-10-16T06:42:54;4.10;;;2.63;;
7687;SDS011;30781;48.154;11.554;2022-10-16T06:45:23;5.13;;;2.70;;
7687;SDS011;30781;48.154;11.554;2022-10-16T06:47:50;3.73;;;2.67;;
7687;SDS011;30781;48.154;11.554;2022-10-16T06:50:19;3.30;;;2.57;;
7687;SDS011;30781;48.154;11.554;2022-10-16T06:52:52;5.73;;;3.53;;
7687;SDS011;30781;48.154;11.554;2022-10-16T06:55:19;2.57;;;2.47;;
7687;SDS011;30781;48.154;11.554;2022-10-16T06:57:47;3.47;;;3.10;;
7687;SDS011;30781;48.154;11.554;2022-10-16T07:00:17;4.90;;;2.93;;
7687;SDS011;30781;48.154;11.554;2022-10-16T07:02:44;3.07;;;2.87;;
7687;SDS011;30781;48.154;11.554;2022-10-16T07:05:11;5.90;;;3.33;;
7687;SDS011;30781;48.154;11.554;2022-10-16T07:07:41;6.67;;;3.27;;
7687;SDS011;30781;48.154;11.554;2022-10-16T07:10:10;3.10;;;2.90;;
7687;SDS011;30781;48.154;11.554;2022-10-16T07:12:46;3.80;;;3.47;;
7687;SDS011;30781;48.154;11.554;2022-10-16T07:15:13;7.30;;;3.20;;
7687;SDS011;30781;48.154;11.554;2022-10-16T07:17:41;6.43;;;2.87;;
7687;SDS011;30781;48.154;11.554;2022-10-16T07:20:08;2.83;;;2.73;;
7687;SDS011;30781;48.154;11.554;2022-10-16T07:22:36;3.93;;;3.00;;
7687;SDS011;30781;48.154;11.554;2022-10-16T07:25:04;4.83;;;2.87;;
7687;SDS011;30781;48.154;11.554;2022-10-16T07:27:38;4.40;;;2.83;;
7687;SDS011;30781;48.154;11.554;2022-10-16T07:30:06;3.20;;;2.70;;
7687;SDS011;30781;48.154;11.554;2022-10-16T07:32:34;4.17;;;2.77;;
7687;SDS011;30781;48.154;11.554;2022-10-16T07:35:10;2.50;;;2.40;;
7687;SDS011;30781;48.154;11.554;2022-10-16T07:37:37;3.07;;;2.87;;
7687;SDS011;30781;48.154;11.554;2022-10-16T07:40:05;3.03;;;2.80;;
7687;SDS011;30781;48.154;11.554;2022-10-16T07:42:33;2.90;;;2.53;;
7687;SDS011;30781;48.154;11.554;2022-10-16T07:45:02;2.70;;;2.50;;
7687;SDS011;30781;48.154;11.554;2022-10-16T07:47:30;2.90;;;2.70;;
7687;SDS011;30781;48.154;11.554;2022-10-16T07:49:57;3.57;;;3.27;;
7687;SDS011;30781;48.154;11.554;2022-10-16T07:52:29;3.03;;;2.83;;
7687;SDS011;30781;48.154;11.554;2022-10-16T07:54:57;3.00;;;2.43;;
7687;SDS011;30781;48.154;11.554;2022-10-16T07:57:29;3.60;;;2.30;;
7687;SDS011;30781;48.154;11.554;2022-10-16T07:59:56;3.23;;;3.00;;
7687;SDS011;30781;48.154;11.554;2022-10-16T08:02:25;2.13;;;2.03;;
7687;SDS011;30781;48.154;11.554;2022-10-16T08:04:52;2.70;;;2.50;;
7687;SDS011;30781;48.154;11.554;2022-10-16T08:07:21;3.10;;;2.70;;
7687;SDS011;30781;48.154;11.554;2022-10-16T08:09:51;2.50;;;2.40;;
7687;SDS011;30781;48.154;11.554;2022-10-16T08:12:23;4.15;;;3.60;;
7687;SDS011;30781;48.154;11.554;2022-10-16T08:14:53;2.95;;;2.38;;
7687;SDS011;30781;48.154;11.554;2022-10-16T08:17:20;2.72;;;2.50;;
7687;SDS011;30781;48.154;11.554;2022-10-16T08:19:51;2.25;;;2.15;;
7687;SDS011;30781;48.154;11.554;2022-10-16T08:22:19;2.25;;;2.05;;
7687;SDS011;30781;48.154;11.554;2022-10-16T08:24:46;2.70;;;2.47;;
7687;SDS011;30781;48.154;11.554;2022-10-16T08:27:13;2.60;;;2.40;;
7687;SDS011;30781;48.154;11.554;2022-10-16T08:29:44;2.00;;;1.90;;
7687;SDS011;30781;48.154;11.554;2022-10-16T08:32:13;3.40;;;2.38;;
7687;SDS011;30781;48.154;11.554;2022-10-16T08:34:40;2.75;;;2.55;;
7687;SDS011;30781;48.154;11.554;2022-10-16T08:37:09;2.60;;;2.40;;
7687;SDS011;30781;48.154;11.554;2022-10-16T08:39:38;4.05;;;2.78;;
7687;SDS011;30781;48.154;11.554;2022-10-16T08:42:11;2.60;;;2.30;;
7687;SDS011;30781;48.154;11.554;2022-10-16T08:45:06;2.67;;;2.10;;
7687;SDS011;30781;48.154;11.554;2022-10-16T08:47:58;2.70;;;2.60;;
7687;SDS011;30781;48.154;11.554;2022-10-16T08:50:36;2.47;;;2.27;;
7687;SDS011;30781;48.154;11.554;2022-10-16T08:53:09;2.40;;;2.20;;
7687;SDS011;30781;48.154;11.554;2022-10-16T08:55:43;2.00;;;1.90;;
7687;SDS011;30781;48.154;11.554;2022-10-16T08:58:16;2.23;;;1.97;;
7687;SDS011;30781;48.154;11.554;2022-10-16T09:00:47;2.90;;;2.70;;
7687;SDS011;30781;48.154;11.554;2022-10-16T09:03:20;6.53;;;2.83;;
7687;SDS011;30781;48.154;11.554;2022-10-16T09:05:57;2.33;;;2.10;;
7687;SDS011;30781;48.154;11.554;2022-10-16T09:08:49;1.87;;;1.77;;
7687;SDS011;30781;48.154;11.554;2022-10-16T09:11:32;2.30;;;2.20;;
7687;SDS011;30781;48.154;11.554;2022-10-16T09:14:20;2.57;;;2.13;;
7687;SDS011;30781;48.154;11.554;2022-10-16T09:17:04;2.50;;;2.30;;
7687;SDS011;30781;48.154;11.554;2022-10-16T09:19:42;2.10;;;2.00;;
7687;SDS011;30781;48.154;11.554;2022-10-16T09:22:17;1.90;;;1.80;;
7687;SDS011;30781;48.154;11.554;2022-10-16T09:24:55;3.90;;;3.60;;
7687;SDS011;30781;48.154;11.554;2022-10-16T09:27:26;2.33;;;2.07;;
7687;SDS011;30781;48.154;11.554;2022-10-16T09:29:54;2.33;;;2.13;;
7687;SDS011;30781;48.154;11.554;2022-10-16T09:32:21;2.50;;;1.90;;
7687;SDS011;30781;48.154;11.554;2022-10-16T09:34:49;1.77;;;1.67;;
7687;SDS011;30781;48.154;11.554;2022-10-16T09:37:21;2.17;;;1.93;;
7687;SDS011;30781;48.154;11.554;2022-10-16T09:39:55;2.10;;;2.00;;
7687;SDS011;30781;48.154;11.554;2022-10-16T09:42:24;2.10;;;1.90;;
7687;SDS011;30781;48.154;11.554;2022-10-16T09:44:58;2.50;;;2.30;;
7687;SDS011;30781;48.154;11.554;2022-10-16T09:47:37;2.43;;;2.23;;
7687;SDS011;30781;48.154;11.554;2022-10-16T09:50:19;2.00;;;1.90;;
7687;SDS011;30781;48.154;11.554;2022-10-16T09:52:49;2.30;;;2.03;;
7687;SDS011;30781;48.154;11.554;2022-10-16T09:55:18;2.20;;;2.10;;
7687;SDS011;30781;48.154;11.554;2022-10-16T09:57:48;2.40;;;2.30;;
7687;SDS011;30781;48.154;11.554;2022-10-16T10:00:23;2.57;;;2.43;;
7687;SDS011;30781;48.154;11.554;2022-10-16T10:02:53;3.05;;;2.80;;
7687;SDS011;30781;48.154;11.554;2022-10-16T10:05:21;4.35;;;4.00;;
7687;SDS011;30781;48.154;11.554;2022-10-16T10:07:54;4.43;;;3.20;;
7687;SDS011;30781;48.154;11.554;2022-10-16T10:10:27;2.80;;;2.60;;
7687;SDS011;30781;48.154;11.554;2022-10-16T10:12:56;2.63;;;2.53;;
7687;SDS011;30781;48.154;11.554;2022-10-16T10:15:25;2.47;;;2.27;;
7687;SDS011;30781;48.154;11.554;2022-10-16T10:17:59;2.60;;;2.40;;
7687;SDS011;30781;48.154;11.554;2022-10-16T10:20:29;2.85;;;2.30;;
7687;SDS011;30781;48.154;11.554;2022-10-16T10:23:19;2.20;;;2.00;;
7687;SDS011;30781;48.154;11.554;2022-10-16T10:25:51;3.03;;;2.60;;
7687;SDS011;30781;48.154;11.554;2022-10-16T10:28:31;2.17;;;2.08;;
7687;SDS011;30781;48.154;11.554;2022-10-16T10:31:20;4.10;;;2.55;;
7687;SDS011;30781;48.154;11.554;2022-10-16T10:33:52;4.75;;;2.30;;
7687;SDS011;30781;48.154;11.554;2022-10-16T10:36:27;3.65;;;2.53;;
7687;SDS011;30781;48.154;11.554;2022-10-16T10:38:58;3.70;;;2.20;;
7687;SDS011;30781;48.154;11.554;2022-10-16T10:41:48;2.38;;;2.10;;
7687;SDS011;30781;48.154;11.554;2022-10-16T10:44:34;2.45;;;2.25;;
7687;SDS011;30781;48.154;11.554;2022-10-16T10:47:18;2.03;;;2.00;;
7687;SDS011;30781;48.154;11.554;2022-10-16T10:49:55;2.28;;;2.08;;
7687;SDS011;30781;48.154;11.554;2022-10-16T10:52:39;1.70;;;1.70;;
7687;SDS011;30781;48.154;11.554;2022-10-16T10:55:17;1.70;;;1.70;;
7687;SDS011;30781;48.154;11.554;2022-10-16T10:58:01;1.75;;;1.65;;
7687;SDS011;30781;48.154;11.554;2022-10-16T11:00:54;2.35;;;2.25;;
7687;SDS011;30781;48.154;11.554;2022-10-16T11:03:32;2.63;;;1.67;;
7687;SDS011;30781;48.154;11.554;2022-10-16T11:06:12;1.30;;;1.30;;
7687;SDS011;30781;48.154;11.554;2022-10-16T11:08:45;1.98;;;1.88;;
7687;SDS011;30781;48.154;11.554;2022-10-16T11:11:16;3.50;;;1.60;;
7687;SDS011;30781;48.154;11.554;2022-10-16T11:13:51;3.53;;;2.38;;
7687;SDS011;30781;48.154;11.554;2022-10-16T11:16:28;1.85;;;1.75;;
7687;SDS011;30781;48.154;11.554;2022-10-16T11:19:02;2.28;;;2.08;;
7687;SDS011;30781;48.154;11.554;2022-10-16T11:21:39;1.42;;;1.38;;
7687;SDS011;30781;48.154;11.554;2022-10-16T11:24:15;2.30;;;1.95;;
7687;SDS011;30781;48.154;11.554;2022-10-16T11:26:49;1.90;;;1.80;;
7687;SDS011;30781;48.154;11.554;2022-10-16T11:29:21;3.95;;;2.00;;
7687;SDS011;30781;48.154;11.554;2022-10-16T11:31:55;2.08;;;1.77;;
7687;SDS011;30781;48.154;11.554;2022-10-16T11:34:32;1.40;;;1.30;;
7687;SDS011;30781;48.154;11.554;2022-10-16T11:37:05;1.85;;;1.27;;
7687;SDS011;30781;48.154;11.554;2022-10-16T11:39:36;2.05;;;1.85;;
7687;SDS011;30781;48.154;11.554;2022-10-16T11:42:09;2.05;;;1.38;;
7687;SDS011;30781;48.154;11.554;2022-10-16T11:44:48;1.30;;;1.30;;
7687;SDS011;30781;48.154;11.554;2022-10-16T11:47:24;1.88;;;1.77;;
7687;SDS011;30781;48.154;11.554;2022-10-16T11:49:58;2.83;;;1.15;;
7687;SDS011;30781;48.154;11.554;2022-10-16T11:52:30;1.58;;;1.48;;
7687;SDS011;30781;48.154;11.554;2022-10-16T11:55:09;2.00;;;1.90;;
7687;SDS011;30781;48.154;11.554;2022-10-16T11:57:44;1.30;;;1.30;;
7687;SDS011;30781;48.154;11.554;2022-10-16T12:00:18;1.15;;;1.10;;
7687;SDS011;30781;48.154;11.554;2022-10-16T12:02:52;2.28;;;1.40;;
7687;SDS011;30781;48.154;11.554;2022-10-16T12:05:29;1.52;;;1.40;;
7687;SDS011;30781;48.154;11.554;2022-10-16T12:08:04;1.30;;;1.20;;
7687;SDS011;30781;48.154;11.554;2022-10-16T12:10:39;1.77;;;1.67;;
7687;SDS011;30781;48.154;11.554;2022-10-16T12:16:19;2.25;;;1.40;;
7687;SDS011;30781;48.154;11.554;2022-10-16T12:18:49;1.50;;;1.50;;
7687;SDS011;30781;48.154;11.554;2022-10-16T12:21:29;3.20;;;1.67;;
7687;SDS011;30781;48.154;11.554;2022-10-16T12:23:58;2.88;;;1.73;;
7687;SDS011;30781;48.154;11.554;2022-10-16T12:26:30;1.92;;;1.83;;
7687;SDS011;30781;48.154;11.554;2022-10-16T12:29:13;3.42;;;1.75;;
7687;SDS011;30781;48.154;11.554;2022-10-16T12:31:47;2.00;;;1.80;;
7687;SDS011;30781;48.154;11.554;2022-10-16T12:34:22;1.75;;;1.65;;
7687;SDS011;30781;48.154;11.554;2022-10-16T12:36:54;2.67;;;2.45;;
7687;SDS011;30781;48.154;11.554;2022-10-16T12:39:37;2.10;;;1.90;;
7687;SDS011;30781;48.154;11.554;2022-10-16T12:42:05;1.88;;;1.77;;
7687;SDS011;30781;48.154;11.554;2022-10-16T12:44:46;2.28;;;2.05;;
7687;SDS011;30781;48.154;11.554;2022-10-16T12:47:21;1.58;;;1.48;;
7687;SDS011;30781;48.154;11.554;2022-10-16T12:49:50;1.38;;;1.27;;
7687;SDS011;30781;48.154;11.554;2022-10-16T12:52:26;1.70;;;1.35;;
7687;SDS011;30781;48.154;11.554;2022-10-16T12:54:58;1.63;;;1.48;;
7687;SDS011;30781;48.154;11.554;2022-10-16T13:00:24;1.75;;;1.65;;
7687;SDS011;30781;48.154;11.554;2022-10-16T13:03:08;1.95;;;1.85;;
7687;SDS011;30781;48.154;11.554;2022-10-16T13:06:01;2.60;;;1.83;;
7687;SDS011;30781;48.154;11.554;2022-10-16T13:08:43;1.65;;;1.63;;
7687;SDS011;30781;48.154;11.554;2022-10-16T13:11:24;1.85;;;1.75;;
7687;SDS011;30781;48.154;11.554;2022-10-16T13:14:07;1.77;;;1.63;;
7687;SDS011;30781;48.154;11.554;2022-10-16T13:16:58;1.63;;;1.52;;
7687;SDS011;30781;48.154;11.554;2022-10-16T13:19:38;1.50;;;1.40;;
7687;SDS011;30781;48.154;11.554;2022-10-16T13:22:17;2.03;;;1.30;;
7687;SDS011;30781;48.154;11.554;2022-10-16T13:25:02;4.07;;;1.70;;
7687;SDS011;30781;48.154;11.554;2022-10-16T13:27:45;1.58;;;1.42;;
7687;SDS011;30781;48.154;11.554;2022-10-16T13:30:19;1.52;;;1.42;;
7687;SDS011;30781;48.154;11.554;2022-10-16T13:32:55;2.08;;;1.27;;
7687;SDS011;30781;48.154;11.554;2022-10-16T13:35:30;1.60;;;1.50;;
7687;SDS011;30781;48.154;11.554;2022-10-16T13:38:12;1.33;;;1.33;;
7687;SDS011;30781;48.154;11.554;2022-10-16T13:40:50;2.53;;;2.33;;
7687;SDS011;30781;48.154;11.554;2022-10-16T13:43:31;1.88;;;1.50;;
7687;SDS011;30781;48.154;11.554;2022-10-16T13:46:02;1.83;;;1.73;;
7687;SDS011;30781;48.154;11.554;2022-10-16T13:48:30;1.33;;;1.33;;
7687;SDS011;30781;48.154;11.554;2022-10-16T13:51:04;1.50;;;1.40;;
7687;SDS011;30781;48.154;11.554;2022-10-16T13:53:39;0.93;;;0.93;;
7687;SDS011;30781;48.154;11.554;2022-10-16T13:56:10;2.05;;;0.98;;
7687;SDS011;30781;48.154;11.554;2022-10-16T13:58:42;0.90;;;0.90;;
7687;SDS011;30781;48.154;11.554;2022-10-16T14:01:15;1.20;;;1.20;;
7687;SDS011;30781;48.154;11.554;2022-10-16T14:03:44;4.40;;;1.33;;
7687;SDS011;30781;48.154;11.554;2022-10-16T14:06:14;1.48;;;0.98;;
7687;SDS011;30781;48.154;11.554;2022-10-16T14:08:51;1.10;;;1.10;;
7687;SDS011;30781;48.154;11.554;2022-10-16T14:11:22;3.90;;;1.55;;
7687;SDS011;30781;48.154;11.554;2022-10-16T14:13:55;1.20;;;1.10;;
7687;SDS011;30781;48.154;11.554;2022-10-16T14:16:23;1.38;;;1.25;;
7687;SDS011;30781;48.154;11.554;2022-10-16T14:18:56;1.10;;;1.10;;
7687;SDS011;30781;48.154;11.554;2022-10-16T14:21:27;2.05;;;1.10;;
7687;SDS011;30781;48.154;11.554;2022-10-16T14:23:57;1.70;;;1.60;;
7687;SDS011;30781;48.154;11.554;2022-10-16T14:26:25;3.58;;;1.50;;
7687;SDS011;30781;48.154;11.554;2022-10-16T14:29:10;3.92;;;1.90;;
7687;SDS011;30781;48.154;11.554;2022-10-16T14:31:40;2.00;;;1.40;;
7687;SDS011;30781;48.154;11.554;2022-10-16T14:34:24;3.63;;;1.95;;
7687;SDS011;30781;48.154;11.554;2022-10-16T14:36:59;1.10;;;1.10;;
7687;SDS011;30781;48.154;11.554;2022-10-16T14:39:35;2.95;;;1.52;;
7687;SDS011;30781;48.154;11.554;2022-10-16T14:42:11;2.00;;;1.73;;
7687;SDS011;30781;48.154;11.554;2022-10-16T14:44:45;0.95;;;0.90;;
7687;SDS011;30781;48.154;11.554;2022-10-16T14:47:20;1.30;;;1.30;;
7687;SDS011;30781;48.154;11.554;2022-10-16T14:49:51;2.10;;;1.27;;
7687;SDS011;30781;48.154;11.554;2022-10-16T14:52:22;1.25;;;1.08;;
7687;SDS011;30781;48.154;11.554;2022-10-16T14:54:57;2.13;;;1.92;;
7687;SDS011;30781;48.154;11.554;2022-10-16T14:57:26;1.13;;;1.02;;
7687;SDS011;30781;48.154;11.554;2022-10-16T14:59:59;0.98;;;0.98;;
7687;SDS011;30781;48.154;11.554;2022-10-16T15:02:28;1.10;;;1.10;;
7687;SDS011;30781;48.154;11.554;2022-10-16T15:05:10;1.20;;;1.20;;
7687;SDS011;30781;48.154;11.554;2022-10-16T15:07:45;1.25;;;1.25;;
7687;SDS011;30781;48.154;11.554;2022-10-16T15:10:18;1.52;;;1.42;;
7687;SDS011;30781;48.154;11.554;2022-10-16T15:12:55;1.35;;;1.25;;
7687;SDS011;30781;48.154;11.554;2022-10-16T15:18:11;1.55;;;1.45;;
7687;SDS011;30781;48.154;11.554;2022-10-16T15:20:40;1.75;;;1.65;;
7687;SDS011;30781;48.154;11.554;2022-10-16T15:23:13;1.60;;;1.50;;
7687;SDS011;30781;48.154;11.554;2022-10-16T15:25:44;1.50;;;1.40;;
7687;SDS011;30781;48.154;11.554;2022-10-16T15:28:12;1.50;;;1.50;;